Main page
METAR-TAF:

METAR-TAF

Airports :

Halmstad Airport

Halmstad, Sweden

latitude: 56-41N, longitude: 012-50E, elevation: 30 m

Current weather observation

The report was made 44 minutes ago, at 23:50 UTC
Wind 5 kt from the South/Southwest
Temperature 10°C
Humidity 82%
Pressure 1013 hPa
Visibility 10 km or more

METAR: ESMT 132350Z AUTO 21005KT 9999 BKN053/// 10/07 Q1013 REDZ

Time: 02:34 (00:34 UTC)

Forecast

The report was made 10 hours and 33 minutes ago, at 14:01 UTC
Forecast valid from 13 at 15 UTC to 13 at 19 UTC
Wind 12 kt from the Southwest
Visibility 10 km or more
Scattered clouds at a height of 3500 ft
Temporary
from 13 at 15 UTC to 13 at 19 UTC
Scattered clouds at a height of 2000 ft, Cumulonimbus.

TAF: ESMT 131401Z 1315/1319 23012KT 9999 SCT035 TEMPO 1315/1319 SCT020CB

Weather observations and forecasts of more than 4000 airports (METAR and TAF reports).

The available stations are represented by yellow and red dots on the map.

Hover mouse over dot to see the name of the station.

Then click to see weather observations and forecasts.

To change the map : click on the green buttons with a black cross to zoom in, on the green button with a dash to zoom out, or on the green arrows for adjacent maps.


METAR-TAF: